sensor_id;sensor_type;location;lat;lon;timestamp;temperature;humidity
51765;DHT22;37835;53.256;6.456;2023-02-21T00:00:16;9.60;99.90
51765;DHT22;37835;53.256;6.456;2023-02-21T00:03:00;9.60;99.90
51765;DHT22;37835;53.256;6.456;2023-02-21T00:05:45;9.60;99.90
51765;DHT22;37835;53.256;6.456;2023-02-21T00:08:29;9.30;99.90
51765;DHT22;37835;53.256;6.456;2023-02-21T00:11:14;9.60;99.90
51765;DHT22;37835;53.256;6.456;2023-02-21T00:13:58;9.60;99.90
51765;DHT22;37835;53.256;6.456;2023-02-21T00:16:42;9.60;99.90
51765;DHT22;37835;53.256;6.456;2023-02-21T00:19:26;10.00;99.90
51765;DHT22;37835;53.256;6.456;2023-02-21T00:22:11;9.50;99.90
51765;DHT22;37835;53.256;6.456;2023-02-21T00:24:55;9.60;99.90
51765;DHT22;37835;53.256;6.456;2023-02-21T00:27:40;9.60;99.90
51765;DHT22;37835;53.256;6.456;2023-02-21T00:30:24;9.50;99.90
51765;DHT22;37835;53.256;6.456;2023-02-21T00:33:08;9.50;99.90
51765;DHT22;37835;53.256;6.456;2023-02-21T00:35:53;9.50;99.90
51765;DHT22;37835;53.256;6.456;2023-02-21T00:38:37;9.60;99.90
51765;DHT22;37835;53.256;6.456;2023-02-21T00:41:21;9.50;99.90
51765;DHT22;37835;53.256;6.456;2023-02-21T00:44:06;9.50;99.90
51765;DHT22;37835;53.256;6.456;2023-02-21T00:46:50;9.50;99.90
51765;DHT22;37835;53.256;6.456;2023-02-21T00:49:35;9.50;99.90
51765;DHT22;37835;53.256;6.456;2023-02-21T00:52:19;9.50;99.90
51765;DHT22;37835;53.256;6.456;2023-02-21T00:55:03;9.50;99.90
51765;DHT22;37835;53.256;6.456;2023-02-21T00:57:47;9.50;99.90
51765;DHT22;37835;53.256;6.456;2023-02-21T01:00:32;9.90;99.90
51765;DHT22;37835;53.256;6.456;2023-02-21T01:03:16;9.50;99.90
51765;DHT22;37835;53.256;6.456;2023-02-21T01:06:00;9.50;99.90
51765;DHT22;37835;53.256;6.456;2023-02-21T01:08:46;9.50;99.90
51765;DHT22;37835;53.256;6.456;2023-02-21T01:11:31;9.40;99.90
51765;DHT22;37835;53.256;6.456;2023-02-21T01:14:15;9.40;99.90
51765;DHT22;37835;53.256;6.456;2023-02-21T01:17:00;9.40;99.90
51765;DHT22;37835;53.256;6.456;2023-02-21T01:19:44;9.40;99.90
51765;DHT22;37835;53.256;6.456;2023-02-21T01:22:28;9.40;99.90
51765;DHT22;37835;53.256;6.456;2023-02-21T01:25:14;9.50;99.90
51765;DHT22;37835;53.256;6.456;2023-02-21T01:27:58;9.40;99.90
51765;DHT22;37835;53.256;6.456;2023-02-21T01:30:43;9.40;99.90
51765;DHT22;37835;53.256;6.456;2023-02-21T01:33:27;9.40;99.90
51765;DHT22;37835;53.256;6.456;2023-02-21T01:36:11;9.40;99.90
51765;DHT22;37835;53.256;6.456;2023-02-21T01:38:56;9.40;99.90
51765;DHT22;37835;53.256;6.456;2023-02-21T01:41:40;9.40;99.90
51765;DHT22;37835;53.256;6.456;2023-02-21T01:44:41;9.40;99.90
51765;DHT22;37835;53.256;6.456;2023-02-21T01:47:26;9.40;99.90
51765;DHT22;37835;53.256;6.456;2023-02-21T01:50:27;9.40;99.90
51765;DHT22;37835;53.256;6.456;2023-02-21T01:53:21;9.40;99.90
51765;DHT22;37835;53.256;6.456;2023-02-21T01:56:08;9.40;99.90
51765;DHT22;37835;53.256;6.456;2023-02-21T01:58:54;9.40;99.90
51765;DHT22;37835;53.256;6.456;2023-02-21T02:05:00;9.40;99.90
51765;DHT22;37835;53.256;6.456;2023-02-21T02:07:45;9.40;99.90
51765;DHT22;37835;53.256;6.456;2023-02-21T02:10:29;9.40;99.90
51765;DHT22;37835;53.256;6.456;2023-02-21T02:22:13;9.40;99.90
51765;DHT22;37835;53.256;6.456;2023-02-21T02:24:52;9.40;99.90
51765;DHT22;37835;53.256;6.456;2023-02-21T02:27:33;9.40;99.90
51765;DHT22;37835;53.256;6.456;2023-02-21T02:36:05;9.40;99.90
51765;DHT22;37835;53.256;6.456;2023-02-21T02:38:52;9.40;99.90
51765;DHT22;37835;53.256;6.456;2023-02-21T02:41:26;9.40;99.90
51765;DHT22;37835;53.256;6.456;2023-02-21T02:43:58;9.40;99.90
51765;DHT22;37835;53.256;6.456;2023-02-21T02:46:28;8.70;99.90
51765;DHT22;37835;53.256;6.456;2023-02-21T02:49:09;9.40;99.90
51765;DHT22;37835;53.256;6.456;2023-02-21T02:51:36;9.40;99.90
51765;DHT22;37835;53.256;6.456;2023-02-21T02:54:03;9.40;99.90
51765;DHT22;37835;53.256;6.456;2023-02-21T02:56:29;9.70;99.90
51765;DHT22;37835;53.256;6.456;2023-02-21T02:59:01;9.30;99.90
51765;DHT22;37835;53.256;6.456;2023-02-21T03:15:48;9.30;99.90
51765;DHT22;37835;53.256;6.456;2023-02-21T03:18:24;9.30;99.90
51765;DHT22;37835;53.256;6.456;2023-02-21T03:20:55;9.30;99.90
51765;DHT22;37835;53.256;6.456;2023-02-21T03:23:23;9.30;99.90
51765;DHT22;37835;53.256;6.456;2023-02-21T03:25:51;9.30;99.90
51765;DHT22;37835;53.256;6.456;2023-02-21T03:28:19;9.30;99.90
51765;DHT22;37835;53.256;6.456;2023-02-21T03:30:48;9.30;99.90
51765;DHT22;37835;53.256;6.456;2023-02-21T03:33:16;9.30;99.90
51765;DHT22;37835;53.256;6.456;2023-02-21T03:35:42;9.30;99.90
51765;DHT22;37835;53.256;6.456;2023-02-21T03:38:09;9.30;99.90
51765;DHT22;37835;53.256;6.456;2023-02-21T03:40:35;9.20;99.90
51765;DHT22;37835;53.256;6.456;2023-02-21T03:43:02;9.20;99.90
51765;DHT22;37835;53.256;6.456;2023-02-21T03:45:29;9.20;99.90
51765;DHT22;37835;53.256;6.456;2023-02-21T03:47:55;9.20;99.90
51765;DHT22;37835;53.256;6.456;2023-02-21T03:50:20;9.30;99.90
51765;DHT22;37835;53.256;6.456;2023-02-21T03:52:46;9.30;99.90
51765;DHT22;37835;53.256;6.456;2023-02-21T03:55:11;9.20;99.90
51765;DHT22;37835;53.256;6.456;2023-02-21T03:57:37;9.20;99.90
51765;DHT22;37835;53.256;6.456;2023-02-21T04:00:03;9.30;99.90
51765;DHT22;37835;53.256;6.456;2023-02-21T04:02:29;10.00;99.90
51765;DHT22;37835;53.256;6.456;2023-02-21T04:04:54;9.20;99.90
51765;DHT22;37835;53.256;6.456;2023-02-21T04:07:20;9.20;99.90
51765;DHT22;37835;53.256;6.456;2023-02-21T04:09:47;9.20;99.90
51765;DHT22;37835;53.256;6.456;2023-02-21T04:12:13;9.20;99.90
51765;DHT22;37835;53.256;6.456;2023-02-21T04:14:39;9.20;99.90
51765;DHT22;37835;53.256;6.456;2023-02-21T04:17:05;9.20;99.90
51765;DHT22;37835;53.256;6.456;2023-02-21T04:19:30;9.20;99.90
51765;DHT22;37835;53.256;6.456;2023-02-21T04:21:56;9.20;99.90
51765;DHT22;37835;53.256;6.456;2023-02-21T04:24:22;9.20;99.90
51765;DHT22;37835;53.256;6.456;2023-02-21T04:26:47;9.20;99.90
51765;DHT22;37835;53.256;6.456;2023-02-21T04:29:13;9.20;99.90
51765;DHT22;37835;53.256;6.456;2023-02-21T04:31:39;9.20;99.90
51765;DHT22;37835;53.256;6.456;2023-02-21T04:34:04;9.20;99.90
51765;DHT22;37835;53.256;6.456;2023-02-21T04:36:30;9.20;99.90
51765;DHT22;37835;53.256;6.456;2023-02-21T04:38:56;9.20;99.90
51765;DHT22;37835;53.256;6.456;2023-02-21T04:41:22;9.20;99.90
51765;DHT22;37835;53.256;6.456;2023-02-21T04:43:47;9.20;99.90
51765;DHT22;37835;53.256;6.456;2023-02-21T04:46:16;9.10;99.90
51765;DHT22;37835;53.256;6.456;2023-02-21T04:48:43;9.10;99.90
51765;DHT22;37835;53.256;6.456;2023-02-21T04:51:10;9.10;99.90
51765;DHT22;37835;53.256;6.456;2023-02-21T04:53:35;8.00;99.90
51765;DHT22;37835;53.256;6.456;2023-02-21T04:56:01;9.10;99.90
51765;DHT22;37835;53.256;6.456;2023-02-21T04:58:27;9.10;99.90
51765;DHT22;37835;53.256;6.456;2023-02-21T05:00:52;9.10;99.90
51765;DHT22;37835;53.256;6.456;2023-02-21T05:03:18;9.10;99.90
51765;DHT22;37835;53.256;6.456;2023-02-21T05:05:43;9.10;99.90
51765;DHT22;37835;53.256;6.456;2023-02-21T05:08:09;9.10;99.90
51765;DHT22;37835;53.256;6.456;2023-02-21T05:10:34;9.10;99.90
51765;DHT22;37835;53.256;6.456;2023-02-21T05:13:00;9.10;99.90
51765;DHT22;37835;53.256;6.456;2023-02-21T05:15:26;9.10;99.90
51765;DHT22;37835;53.256;6.456;2023-02-21T05:17:51;9.10;99.90
51765;DHT22;37835;53.256;6.456;2023-02-21T05:20:17;9.00;99.90
51765;DHT22;37835;53.256;6.456;2023-02-21T05:22:43;9.00;99.90
51765;DHT22;37835;53.256;6.456;2023-02-21T05:25:20;9.00;99.90
51765;DHT22;37835;53.256;6.456;2023-02-21T05:27:46;9.00;99.90
51765;DHT22;37835;53.256;6.456;2023-02-21T05:30:13;9.00;99.90
51765;DHT22;37835;53.256;6.456;2023-02-21T05:32:39;9.00;99.90
51765;DHT22;37835;53.256;6.456;2023-02-21T05:35:05;9.00;99.90
51765;DHT22;37835;53.256;6.456;2023-02-21T05:37:31;9.00;99.90
51765;DHT22;37835;53.256;6.456;2023-02-21T05:39:57;9.00;99.90
51765;DHT22;37835;53.256;6.456;2023-02-21T05:42:23;9.00;99.90
51765;DHT22;37835;53.256;6.456;2023-02-21T05:44:49;9.00;99.90
51765;DHT22;37835;53.256;6.456;2023-02-21T05:47:14;9.00;99.90
51765;DHT22;37835;53.256;6.456;2023-02-21T05:49:40;9.00;99.90
51765;DHT22;37835;53.256;6.456;2023-02-21T05:52:09;9.00;99.90
51765;DHT22;37835;53.256;6.456;2023-02-21T05:54:35;9.00;99.90
51765;DHT22;37835;53.256;6.456;2023-02-21T05:57:00;9.00;99.90
51765;DHT22;37835;53.256;6.456;2023-02-21T05:59:26;8.90;99.90
51765;DHT22;37835;53.256;6.456;2023-02-21T06:01:52;8.90;99.90
51765;DHT22;37835;53.256;6.456;2023-02-21T06:04:17;8.90;99.90
51765;DHT22;37835;53.256;6.456;2023-02-21T06:06:43;8.90;99.90
51765;DHT22;37835;53.256;6.456;2023-02-21T06:09:09;8.90;99.90
51765;DHT22;37835;53.256;6.456;2023-02-21T06:11:36;8.90;99.90
51765;DHT22;37835;53.256;6.456;2023-02-21T06:14:04;8.90;99.90
51765;DHT22;37835;53.256;6.456;2023-02-21T06:16:37;9.10;99.90
51765;DHT22;37835;53.256;6.456;2023-02-21T06:19:05;8.90;99.90
51765;DHT22;37835;53.256;6.456;2023-02-21T06:21:31;7.10;99.90
51765;DHT22;37835;53.256;6.456;2023-02-21T06:23:56;8.30;99.90
51765;DHT22;37835;53.256;6.456;2023-02-21T06:26:22;8.90;99.90
51765;DHT22;37835;53.256;6.456;2023-02-21T06:28:48;8.90;99.90
51765;DHT22;37835;53.256;6.456;2023-02-21T06:31:15;8.90;99.90
51765;DHT22;37835;53.256;6.456;2023-02-21T06:33:40;8.90;99.90
51765;DHT22;37835;53.256;6.456;2023-02-21T06:36:09;8.90;99.90
51765;DHT22;37835;53.256;6.456;2023-02-21T06:38:36;8.90;99.90
51765;DHT22;37835;53.256;6.456;2023-02-21T06:41:08;8.90;99.90
51765;DHT22;37835;53.256;6.456;2023-02-21T06:43:34;8.90;99.90
51765;DHT22;37835;53.256;6.456;2023-02-21T06:46:03;8.90;99.90
51765;DHT22;37835;53.256;6.456;2023-02-21T06:48:29;8.80;99.90
51765;DHT22;37835;53.256;6.456;2023-02-21T06:50:55;8.80;99.90
51765;DHT22;37835;53.256;6.456;2023-02-21T06:53:20;8.80;99.90
51765;DHT22;37835;53.256;6.456;2023-02-21T06:55:46;8.80;99.90
51765;DHT22;37835;53.256;6.456;2023-02-21T06:58:11;8.80;99.90
51765;DHT22;37835;53.256;6.456;2023-02-21T07:00:37;8.80;99.90
51765;DHT22;37835;53.256;6.456;2023-02-21T07:03:03;8.80;99.90
51765;DHT22;37835;53.256;6.456;2023-02-21T07:05:28;8.80;99.90
51765;DHT22;37835;53.256;6.456;2023-02-21T07:07:59;8.80;99.90
51765;DHT22;37835;53.256;6.456;2023-02-21T07:10:25;8.80;99.90
51765;DHT22;37835;53.256;6.456;2023-02-21T07:12:51;8.80;99.90
51765;DHT22;37835;53.256;6.456;2023-02-21T07:15:16;8.80;99.90
51765;DHT22;37835;53.256;6.456;2023-02-21T07:17:42;8.80;99.90
51765;DHT22;37835;53.256;6.456;2023-02-21T07:20:08;8.80;99.90
51765;DHT22;37835;53.256;6.456;2023-02-21T07:22:34;8.80;99.90
51765;DHT22;37835;53.256;6.456;2023-02-21T07:25:00;8.80;99.90
51765;DHT22;37835;53.256;6.456;2023-02-21T07:27:25;8.80;99.90
51765;DHT22;37835;53.256;6.456;2023-02-21T07:29:51;8.80;99.90
51765;DHT22;37835;53.256;6.456;2023-02-21T07:32:16;8.80;99.90
51765;DHT22;37835;53.256;6.456;2023-02-21T07:34:42;8.80;99.90
51765;DHT22;37835;53.256;6.456;2023-02-21T07:37:09;8.80;99.90
51765;DHT22;37835;53.256;6.456;2023-02-21T07:39:35;8.80;99.90
51765;DHT22;37835;53.256;6.456;2023-02-21T07:42:01;8.80;99.90
51765;DHT22;37835;53.256;6.456;2023-02-21T07:44:26;8.80;99.90
51765;DHT22;37835;53.256;6.456;2023-02-21T07:46:53;8.80;99.90
51765;DHT22;37835;53.256;6.456;2023-02-21T07:49:19;8.80;99.90
51765;DHT22;37835;53.256;6.456;2023-02-21T07:51:45;8.80;99.90
51765;DHT22;37835;53.256;6.456;2023-02-21T07:54:10;8.90;99.90
51765;DHT22;37835;53.256;6.456;2023-02-21T07:56:44;8.90;99.90
51765;DHT22;37835;53.256;6.456;2023-02-21T07:59:10;8.90;99.90
51765;DHT22;37835;53.256;6.456;2023-02-21T08:01:36;8.90;99.90
51765;DHT22;37835;53.256;6.456;2023-02-21T08:04:01;8.90;99.90
51765;DHT22;37835;53.256;6.456;2023-02-21T08:06:27;8.90;99.90
51765;DHT22;37835;53.256;6.456;2023-02-21T08:08:52;8.90;99.90
51765;DHT22;37835;53.256;6.456;2023-02-21T08:11:18;8.90;99.90
51765;DHT22;37835;53.256;6.456;2023-02-21T08:13:44;8.90;99.90
51765;DHT22;37835;53.256;6.456;2023-02-21T08:16:09;9.00;99.90
51765;DHT22;37835;53.256;6.456;2023-02-21T08:18:35;8.90;99.90
51765;DHT22;37835;53.256;6.456;2023-02-21T08:21:00;9.00;99.90
51765;DHT22;37835;53.256;6.456;2023-02-21T08:23:26;9.00;99.90
51765;DHT22;37835;53.256;6.456;2023-02-21T08:25:52;9.00;99.90
51765;DHT22;37835;53.256;6.456;2023-02-21T08:28:17;9.00;99.90
51765;DHT22;37835;53.256;6.456;2023-02-21T08:30:43;9.00;99.90
51765;DHT22;37835;53.256;6.456;2023-02-21T08:33:09;9.10;99.90
51765;DHT22;37835;53.256;6.456;2023-02-21T08:35:34;9.10;99.90
51765;DHT22;37835;53.256;6.456;2023-02-21T08:38:00;9.10;99.90
51765;DHT22;37835;53.256;6.456;2023-02-21T08:40:29;9.10;99.90
51765;DHT22;37835;53.256;6.456;2023-02-21T08:42:57;9.10;99.90
51765;DHT22;37835;53.256;6.456;2023-02-21T08:45:24;9.10;99.90
51765;DHT22;37835;53.256;6.456;2023-02-21T08:47:50;9.20;99.90
51765;DHT22;37835;53.256;6.456;2023-02-21T08:50:17;9.20;99.90
51765;DHT22;37835;53.256;6.456;2023-02-21T08:52:45;9.20;99.90
51765;DHT22;37835;53.256;6.456;2023-02-21T08:55:11;9.20;99.90
51765;DHT22;37835;53.256;6.456;2023-02-21T08:57:37;9.20;99.90
51765;DHT22;37835;53.256;6.456;2023-02-21T09:00:04;9.30;99.90
51765;DHT22;37835;53.256;6.456;2023-02-21T09:02:36;9.30;99.90
51765;DHT22;37835;53.256;6.456;2023-02-21T09:05:15;9.30;99.90
51765;DHT22;37835;53.256;6.456;2023-02-21T09:07:41;9.30;99.90
51765;DHT22;37835;53.256;6.456;2023-02-21T09:10:08;9.30;99.90
51765;DHT22;37835;53.256;6.456;2023-02-21T09:12:35;9.40;99.90
51765;DHT22;37835;53.256;6.456;2023-02-21T09:15:01;10.00;99.90
51765;DHT22;37835;53.256;6.456;2023-02-21T09:17:27;9.40;99.90
51765;DHT22;37835;53.256;6.456;2023-02-21T09:19:52;9.40;99.90
51765;DHT22;37835;53.256;6.456;2023-02-21T09:22:18;9.50;99.90
51765;DHT22;37835;53.256;6.456;2023-02-21T09:24:43;9.50;99.90
51765;DHT22;37835;53.256;6.456;2023-02-21T09:27:09;9.50;99.90
51765;DHT22;37835;53.256;6.456;2023-02-21T09:29:35;9.50;99.90
51765;DHT22;37835;53.256;6.456;2023-02-21T09:32:01;9.60;99.90
51765;DHT22;37835;53.256;6.456;2023-02-21T09:34:27;9.60;99.90
51765;DHT22;37835;53.256;6.456;2023-02-21T09:36:53;9.60;99.90
51765;DHT22;37835;53.256;6.456;2023-02-21T09:39:22;9.70;99.90
51765;DHT22;37835;53.256;6.456;2023-02-21T09:41:49;9.70;99.90
51765;DHT22;37835;53.256;6.456;2023-02-21T09:44:20;9.70;99.90
51765;DHT22;37835;53.256;6.456;2023-02-21T09:46:53;9.80;99.90
51765;DHT22;37835;53.256;6.456;2023-02-21T09:49:34;9.80;99.90
51765;DHT22;37835;53.256;6.456;2023-02-21T09:52:01;9.80;99.90
51765;DHT22;37835;53.256;6.456;2023-02-21T09:56:59;9.80;99.90
51765;DHT22;37835;53.256;6.456;2023-02-21T09:59:25;9.90;99.90
51765;DHT22;37835;53.256;6.456;2023-02-21T10:07:21;9.90;99.90
51765;DHT22;37835;53.256;6.456;2023-02-21T10:12:23;9.90;99.90
51765;DHT22;37835;53.256;6.456;2023-02-21T10:20:53;9.90;99.90
51765;DHT22;37835;53.256;6.456;2023-02-21T10:23:28;9.90;99.90
51765;DHT22;37835;53.256;6.456;2023-02-21T10:26:03;9.90;99.90
51765;DHT22;37835;53.256;6.456;2023-02-21T10:28:31;9.90;99.90
51765;DHT22;37835;53.256;6.456;2023-02-21T10:31:00;9.90;99.90
51765;DHT22;37835;53.256;6.456;2023-02-21T10:33:27;10.00;99.90
51765;DHT22;37835;53.256;6.456;2023-02-21T10:35:53;10.00;99.90
51765;DHT22;37835;53.256;6.456;2023-02-21T10:38:22;10.00;99.90
51765;DHT22;37835;53.256;6.456;2023-02-21T10:40:56;10.00;99.90
51765;DHT22;37835;53.256;6.456;2023-02-21T10:43:52;10.00;99.90
51765;DHT22;37835;53.256;6.456;2023-02-21T10:48:51;10.10;99.90
51765;DHT22;37835;53.256;6.456;2023-02-21T10:51:37;10.10;99.90
51765;DHT22;37835;53.256;6.456;2023-02-21T10:54:23;10.10;99.90
51765;DHT22;37835;53.256;6.456;2023-02-21T10:56:51;10.10;99.90
51765;DHT22;37835;53.256;6.456;2023-02-21T10:59:22;10.10;99.90
51765;DHT22;37835;53.256;6.456;2023-02-21T11:01:49;10.10;99.90
51765;DHT22;37835;53.256;6.456;2023-02-21T11:07:14;10.10;99.90
51765;DHT22;37835;53.256;6.456;2023-02-21T11:09:42;10.10;99.90
51765;DHT22;37835;53.256;6.456;2023-02-21T11:12:34;10.10;99.90
51765;DHT22;37835;53.256;6.456;2023-02-21T11:17:30;10.10;99.90
51765;DHT22;37835;53.256;6.456;2023-02-21T11:20:15;10.10;99.90
51765;DHT22;37835;53.256;6.456;2023-02-21T11:22:44;10.10;99.90
51765;DHT22;37835;53.256;6.456;2023-02-21T11:25:29;10.20;99.90
51765;DHT22;37835;53.256;6.456;2023-02-21T11:30:46;10.20;99.90
51765;DHT22;37835;53.256;6.456;2023-02-21T11:33:18;10.20;99.90
51765;DHT22;37835;53.256;6.456;2023-02-21T11:35:50;10.20;99.90
51765;DHT22;37835;53.256;6.456;2023-02-21T11:40:56;10.30;99.90
51765;DHT22;37835;53.256;6.456;2023-02-21T11:43:45;10.30;99.90
51765;DHT22;37835;53.256;6.456;2023-02-21T11:46:38;10.40;99.90
51765;DHT22;37835;53.256;6.456;2023-02-21T11:49:25;10.40;99.90
51765;DHT22;37835;53.256;6.456;2023-02-21T11:52:13;10.40;99.90
51765;DHT22;37835;53.256;6.456;2023-02-21T11:54:40;10.50;99.90
51765;DHT22;37835;53.256;6.456;2023-02-21T12:00:25;10.50;99.90
51765;DHT22;37835;53.256;6.456;2023-02-21T12:13:59;10.40;99.90
51765;DHT22;37835;53.256;6.456;2023-02-21T12:30:51;10.50;99.90
51765;DHT22;37835;53.256;6.456;2023-02-21T12:36:27;10.50;99.90
51765;DHT22;37835;53.256;6.456;2023-02-21T12:50:12;10.50;99.90
51765;DHT22;37835;53.256;6.456;2023-02-21T12:52:56;10.50;99.90
51765;DHT22;37835;53.256;6.456;2023-02-21T12:55:34;10.60;99.90
51765;DHT22;37835;53.256;6.456;2023-02-21T12:58:19;10.60;99.90
51765;DHT22;37835;53.256;6.456;2023-02-21T13:01:01;10.60;99.90
51765;DHT22;37835;53.256;6.456;2023-02-21T13:11:42;10.60;99.90
51765;DHT22;37835;53.256;6.456;2023-02-21T13:14:15;10.60;99.90
51765;DHT22;37835;53.256;6.456;2023-02-21T13:16:41;10.70;99.90
51765;DHT22;37835;53.256;6.456;2023-02-21T13:19:10;10.70;99.90
51765;DHT22;37835;53.256;6.456;2023-02-21T13:24:51;10.70;99.90
51765;DHT22;37835;53.256;6.456;2023-02-21T13:30:11;10.70;99.90
51765;DHT22;37835;53.256;6.456;2023-02-21T13:32:38;10.70;99.90
51765;DHT22;37835;53.256;6.456;2023-02-21T13:35:07;10.70;99.90
51765;DHT22;37835;53.256;6.456;2023-02-21T13:37:35;10.80;99.90
51765;DHT22;37835;53.256;6.456;2023-02-21T13:40:45;10.70;99.90
51765;DHT22;37835;53.256;6.456;2023-02-21T13:43:30;10.70;99.90
51765;DHT22;37835;53.256;6.456;2023-02-21T13:46:22;10.70;99.90
51765;DHT22;37835;53.256;6.456;2023-02-21T13:51:52;10.70;99.90
51765;DHT22;37835;53.256;6.456;2023-02-21T13:54:24;10.70;99.90
51765;DHT22;37835;53.256;6.456;2023-02-21T13:56:50;10.70;99.90
51765;DHT22;37835;53.256;6.456;2023-02-21T14:01:51;10.70;99.90
51765;DHT22;37835;53.256;6.456;2023-02-21T14:07:44;10.70;99.90
51765;DHT22;37835;53.256;6.456;2023-02-21T14:10:38;10.70;99.90
51765;DHT22;37835;53.256;6.456;2023-02-21T14:13:27;10.70;99.90
51765;DHT22;37835;53.256;6.456;2023-02-21T14:16:08;10.70;99.90
51765;DHT22;37835;53.256;6.456;2023-02-21T14:21:06;10.70;99.90
51765;DHT22;37835;53.256;6.456;2023-02-21T14:23:49;10.70;99.90
51765;DHT22;37835;53.256;6.456;2023-02-21T14:29:11;10.70;99.90
51765;DHT22;37835;53.256;6.456;2023-02-21T14:39:58;10.60;99.90
51765;DHT22;37835;53.256;6.456;2023-02-21T14:45:18;10.60;99.90
51765;DHT22;37835;53.256;6.456;2023-02-21T14:48:07;10.60;99.90
51765;DHT22;37835;53.256;6.456;2023-02-21T15:02:23;10.40;99.90
51765;DHT22;37835;53.256;6.456;2023-02-21T15:05:16;10.40;99.90
51765;DHT22;37835;53.256;6.456;2023-02-21T15:12:49;10.30;99.90
51765;DHT22;37835;53.256;6.456;2023-02-21T15:15:42;10.30;99.90
51765;DHT22;37835;53.256;6.456;2023-02-21T15:18:22;10.30;99.90
51765;DHT22;37835;53.256;6.456;2023-02-21T15:23:35;10.20;99.90
51765;DHT22;37835;53.256;6.456;2023-02-21T15:28:42;10.40;99.90
51765;DHT22;37835;53.256;6.456;2023-02-21T15:31:10;10.10;99.90
51765;DHT22;37835;53.256;6.456;2023-02-21T15:33:39;10.10;99.90
51765;DHT22;37835;53.256;6.456;2023-02-21T15:36:15;10.10;99.90
51765;DHT22;37835;53.256;6.456;2023-02-21T15:39:07;10.00;99.90
51765;DHT22;37835;53.256;6.456;2023-02-21T15:41:44;10.00;99.90
51765;DHT22;37835;53.256;6.456;2023-02-21T15:44:20;10.20;99.90
51765;DHT22;37835;53.256;6.456;2023-02-21T15:46:53;10.00;99.90
51765;DHT22;37835;53.256;6.456;2023-02-21T15:49:37;9.90;99.90
51765;DHT22;37835;53.256;6.456;2023-02-21T15:52:05;9.90;99.90
51765;DHT22;37835;53.256;6.456;2023-02-21T15:54:33;9.90;99.90
51765;DHT22;37835;53.256;6.456;2023-02-21T15:59:31;9.90;99.90
51765;DHT22;37835;53.256;6.456;2023-02-21T16:02:20;9.80;99.90
51765;DHT22;37835;53.256;6.456;2023-02-21T16:04:48;9.80;99.90
51765;DHT22;37835;53.256;6.456;2023-02-21T16:07:18;9.70;99.90
51765;DHT22;37835;53.256;6.456;2023-02-21T16:09:48;9.70;99.90
51765;DHT22;37835;53.256;6.456;2023-02-21T16:12:20;9.70;99.90
51765;DHT22;37835;53.256;6.456;2023-02-21T16:14:55;9.60;99.90
51765;DHT22;37835;53.256;6.456;2023-02-21T16:20:13;9.60;99.90
51765;DHT22;37835;53.256;6.456;2023-02-21T16:22:42;9.60;99.90
51765;DHT22;37835;53.256;6.456;2023-02-21T16:27:58;9.50;99.90
51765;DHT22;37835;53.256;6.456;2023-02-21T16:30:29;9.50;99.90
51765;DHT22;37835;53.256;6.456;2023-02-21T16:33:03;9.40;99.90
51765;DHT22;37835;53.256;6.456;2023-02-21T16:35:30;9.40;99.90
51765;DHT22;37835;53.256;6.456;2023-02-21T16:37:58;9.40;99.90
51765;DHT22;37835;53.256;6.456;2023-02-21T16:40:32;9.40;99.90
51765;DHT22;37835;53.256;6.456;2023-02-21T16:42:58;9.40;99.90
51765;DHT22;37835;53.256;6.456;2023-02-21T16:45:27;9.30;99.90
51765;DHT22;37835;53.256;6.456;2023-02-21T16:47:58;9.40;99.90
51765;DHT22;37835;53.256;6.456;2023-02-21T16:50:35;9.30;99.90
51765;DHT22;37835;53.256;6.456;2023-02-21T16:53:02;9.30;99.90
51765;DHT22;37835;53.256;6.456;2023-02-21T16:55:28;9.30;99.90
51765;DHT22;37835;53.256;6.456;2023-02-21T16:57:59;9.30;99.90
51765;DHT22;37835;53.256;6.456;2023-02-21T17:00:26;8.50;99.90
51765;DHT22;37835;53.256;6.456;2023-02-21T17:02:52;9.30;99.90
51765;DHT22;37835;53.256;6.456;2023-02-21T17:05:19;9.30;99.90
51765;DHT22;37835;53.256;6.456;2023-02-21T17:07:50;9.20;99.90
51765;DHT22;37835;53.256;6.456;2023-02-21T17:10:16;9.20;99.90
51765;DHT22;37835;53.256;6.456;2023-02-21T17:12:42;9.20;99.90
51765;DHT22;37835;53.256;6.456;2023-02-21T17:15:08;9.20;99.90
51765;DHT22;37835;53.256;6.456;2023-02-21T17:17:35;9.20;99.90
51765;DHT22;37835;53.256;6.456;2023-02-21T17:20:01;9.20;99.90
51765;DHT22;37835;53.256;6.456;2023-02-21T17:22:27;9.20;99.90
51765;DHT22;37835;53.256;6.456;2023-02-21T17:24:53;9.10;99.90
51765;DHT22;37835;53.256;6.456;2023-02-21T17:27:19;9.10;99.90
51765;DHT22;37835;53.256;6.456;2023-02-21T17:29:46;9.10;99.90
51765;DHT22;37835;53.256;6.456;2023-02-21T17:32:12;9.10;99.90
51765;DHT22;37835;53.256;6.456;2023-02-21T17:34:37;9.10;99.90
51765;DHT22;37835;53.256;6.456;2023-02-21T17:37:03;9.10;99.90
51765;DHT22;37835;53.256;6.456;2023-02-21T17:39:29;9.10;99.90
51765;DHT22;37835;53.256;6.456;2023-02-21T17:41:55;9.10;99.90
51765;DHT22;37835;53.256;6.456;2023-02-21T17:44:22;9.00;99.90
51765;DHT22;37835;53.256;6.456;2023-02-21T17:46:55;9.10;99.90
51765;DHT22;37835;53.256;6.456;2023-02-21T17:49:26;9.00;99.90
51765;DHT22;37835;53.256;6.456;2023-02-21T17:51:53;9.00;99.90
51765;DHT22;37835;53.256;6.456;2023-02-21T17:54:22;9.40;99.90
51765;DHT22;37835;53.256;6.456;2023-02-21T17:56:48;9.00;99.90
51765;DHT22;37835;53.256;6.456;2023-02-21T17:59:15;9.00;99.90
51765;DHT22;37835;53.256;6.456;2023-02-21T18:01:41;9.00;99.90
51765;DHT22;37835;53.256;6.456;2023-02-21T18:04:07;9.00;99.90
51765;DHT22;37835;53.256;6.456;2023-02-21T18:06:33;9.00;99.90
51765;DHT22;37835;53.256;6.456;2023-02-21T18:09:00;9.00;99.90
51765;DHT22;37835;53.256;6.456;2023-02-21T18:11:26;9.00;99.90
51765;DHT22;37835;53.256;6.456;2023-02-21T18:13:54;9.00;99.90
51765;DHT22;37835;53.256;6.456;2023-02-21T18:16:20;9.00;99.90
51765;DHT22;37835;53.256;6.456;2023-02-21T18:18:45;8.90;99.90
51765;DHT22;37835;53.256;6.456;2023-02-21T18:21:11;8.90;99.90
51765;DHT22;37835;53.256;6.456;2023-02-21T18:23:42;8.90;99.90
51765;DHT22;37835;53.256;6.456;2023-02-21T18:26:08;8.80;99.90
51765;DHT22;37835;53.256;6.456;2023-02-21T18:28:33;7.80;99.90
51765;DHT22;37835;53.256;6.456;2023-02-21T18:30:59;8.90;99.90
51765;DHT22;37835;53.256;6.456;2023-02-21T18:33:25;8.90;99.90
51765;DHT22;37835;53.256;6.456;2023-02-21T18:35:54;8.90;99.90
51765;DHT22;37835;53.256;6.456;2023-02-21T18:38:20;8.90;99.90
51765;DHT22;37835;53.256;6.456;2023-02-21T18:40:46;8.90;99.90
51765;DHT22;37835;53.256;6.456;2023-02-21T18:43:20;8.90;99.90
51765;DHT22;37835;53.256;6.456;2023-02-21T18:45:47;8.90;99.90
51765;DHT22;37835;53.256;6.456;2023-02-21T18:48:13;8.90;99.90
51765;DHT22;37835;53.256;6.456;2023-02-21T18:50:40;8.90;99.90
51765;DHT22;37835;53.256;6.456;2023-02-21T18:53:06;8.90;99.90
51765;DHT22;37835;53.256;6.456;2023-02-21T18:55:31;8.80;99.90
51765;DHT22;37835;53.256;6.456;2023-02-21T18:57:57;8.80;99.90
51765;DHT22;37835;53.256;6.456;2023-02-21T19:00:24;8.80;99.90
51765;DHT22;37835;53.256;6.456;2023-02-21T19:02:51;8.80;99.90